createdAt,value
2023-03-22T00:00:42.037Z,24.10
2023-03-22T00:03:10.564Z,23.60
2023-03-22T00:05:40.133Z,21.20
2023-03-22T00:08:27.875Z,23.30
2023-03-22T00:10:55.911Z,23.60
2023-03-22T00:13:25.620Z,22.40
2023-03-22T00:15:57.322Z,22.30
2023-03-22T00:18:31.592Z,21.20
2023-03-22T00:20:59.850Z,23.40
2023-03-22T00:23:28.244Z,22.40
2023-03-22T00:25:58.524Z,22.50
2023-03-22T00:28:27.593Z,21.20
2023-03-22T00:31:02.687Z,22.30
2023-03-22T00:33:31.302Z,22.20
2023-03-22T00:36:03.384Z,21.40
2023-03-22T00:38:44.051Z,20.50
2023-03-22T00:41:17.407Z,20.70
2023-03-22T00:43:49.207Z,21.20
2023-03-22T00:46:19.533Z,21.00
2023-03-22T00:48:48.078Z,20.70
2023-03-22T00:51:16.305Z,20.30
2023-03-22T00:53:45.754Z,21.10
2023-03-22T00:56:16.055Z,20.20
2023-03-22T00:59:05.062Z,19.40
2023-03-22T01:01:34.828Z,19.30
2023-03-22T01:04:05.200Z,19.10
2023-03-22T01:06:33.951Z,20.20
2023-03-22T01:09:02.059Z,19.50
2023-03-22T01:11:31.667Z,20.20
2023-03-22T01:13:59.739Z,18.60
2023-03-22T01:16:28.065Z,20.10
2023-03-22T01:18:56.548Z,19.20
2023-03-22T01:21:24.684Z,20.30
2023-03-22T01:23:52.821Z,19.80
2023-03-22T01:26:21.168Z,18.90
2023-03-22T01:28:49.920Z,19.20
2023-03-22T01:31:17.883Z,17.30
2023-03-22T01:33:46.066Z,18.00
2023-03-22T01:36:14.276Z,18.20
2023-03-22T01:38:45.071Z,19.00
2023-03-22T01:41:13.362Z,19.10
2023-03-22T01:43:42.238Z,18.60
2023-03-22T01:46:14.880Z,18.90
2023-03-22T01:48:46.827Z,19.00
2023-03-22T01:51:27.766Z,18.30
2023-03-22T01:54:30.723Z,19.10
2023-03-22T01:56:58.828Z,19.10
2023-03-22T01:59:36.507Z,19.00
2023-03-22T02:02:31.016Z,19.50
2023-03-22T02:05:09.996Z,20.50
2023-03-22T02:07:38.022Z,20.30
2023-03-22T02:10:23.833Z,19.90
2023-03-22T02:13:07.817Z,18.30
2023-03-22T02:16:17.537Z,18.90
2023-03-22T02:18:56.033Z,19.00
2023-03-22T02:21:51.795Z,19.90
2023-03-22T02:24:28.157Z,20.50
2023-03-22T02:27:34.098Z,20.60
2023-03-22T02:30:22.081Z,21.00
2023-03-22T02:33:07.581Z,19.40
2023-03-22T02:36:08.976Z,19.10
2023-03-22T02:39:14.959Z,20.80
2023-03-22T02:42:03.891Z,21.00
2023-03-22T02:44:42.684Z,20.50
2023-03-22T02:47:35.589Z,20.70
2023-03-22T02:50:19.326Z,20.50
2023-03-22T02:52:56.165Z,20.30
2023-03-22T02:55:29.508Z,19.80
2023-03-22T02:58:00.511Z,19.10
2023-03-22T03:00:29.099Z,20.20
2023-03-22T03:03:02.066Z,20.20
2023-03-22T03:05:31.376Z,21.00
2023-03-22T03:08:00.746Z,21.00
2023-03-22T03:10:32.228Z,19.30
2023-03-22T03:13:03.806Z,21.30
2023-03-22T03:15:32.092Z,19.60
2023-03-22T03:18:16.118Z,19.60
2023-03-22T03:21:00.448Z,19.80
2023-03-22T03:23:48.937Z,19.80
2023-03-22T03:26:28.221Z,21.80
2023-03-22T03:29:05.344Z,19.30
2023-03-22T03:31:47.649Z,19.40
2023-03-22T03:34:17.784Z,20.20
2023-03-22T03:36:50.960Z,19.10
2023-03-22T03:39:19.001Z,20.50
2023-03-22T03:41:47.221Z,20.20
2023-03-22T03:44:18.319Z,20.50
2023-03-22T03:46:46.877Z,20.80
2023-03-22T03:49:16.128Z,22.00
2023-03-22T03:51:49.839Z,20.40
2023-03-22T03:54:18.059Z,19.00
2023-03-22T03:56:47.841Z,18.80
2023-03-22T03:59:19.927Z,18.10
2023-03-22T04:01:53.564Z,18.50
2023-03-22T04:04:30.220Z,17.90
2023-03-22T04:07:04.167Z,17.80
2023-03-22T04:09:36.843Z,19.10
2023-03-22T04:12:17.449Z,17.70
2023-03-22T04:14:52.714Z,18.00
2023-03-22T04:17:23.370Z,18.80
2023-03-22T04:19:56.627Z,18.60
2023-03-22T04:22:26.639Z,19.50
2023-03-22T04:24:58.090Z,17.60
2023-03-22T04:27:29.416Z,17.90
2023-03-22T04:30:11.419Z,18.10
2023-03-22T04:33:08.645Z,19.10
2023-03-22T04:36:16.007Z,18.10
2023-03-22T04:38:55.456Z,16.60
2023-03-22T04:41:24.806Z,18.00
2023-03-22T04:43:54.923Z,17.30
2023-03-22T04:46:24.148Z,16.80
2023-03-22T04:49:01.217Z,17.30
2023-03-22T04:51:32.182Z,17.30
2023-03-22T04:54:35.715Z,17.60
2023-03-22T04:57:05.661Z,17.40
2023-03-22T04:59:38.556Z,16.90
2023-03-22T05:02:06.840Z,17.70
2023-03-22T05:04:43.277Z,17.60
2023-03-22T05:07:31.165Z,17.90
2023-03-22T05:10:01.380Z,17.60
2023-03-22T05:12:29.941Z,18.60
2023-03-22T05:15:21.074Z,17.80
2023-03-22T05:17:52.927Z,18.10
2023-03-22T05:20:21.119Z,18.40
2023-03-22T05:22:59.271Z,18.10
2023-03-22T05:25:30.131Z,17.50
2023-03-22T05:28:04.036Z,18.20
2023-03-22T05:30:44.391Z,16.50
2023-03-22T05:33:29.720Z,16.80
2023-03-22T05:35:58.657Z,17.80
2023-03-22T05:38:30.704Z,17.80
2023-03-22T05:41:00.840Z,17.60
2023-03-22T05:43:32.803Z,17.80
2023-03-22T05:46:09.057Z,17.90
2023-03-22T05:49:01.100Z,16.80
2023-03-22T05:51:32.270Z,15.60
2023-03-22T05:54:00.552Z,16.30
2023-03-22T05:56:35.494Z,15.10
2023-03-22T05:59:07.199Z,15.90
2023-03-22T06:01:36.560Z,15.40
2023-03-22T06:04:14.684Z,15.70
2023-03-22T06:06:56.171Z,14.30
2023-03-22T06:09:43.084Z,14.40
2023-03-22T06:12:24.682Z,14.40
2023-03-22T06:14:59.062Z,13.70
2023-03-22T06:17:49.484Z,14.40
2023-03-22T06:20:22.239Z,15.60
2023-03-22T06:22:55.238Z,14.30
2023-03-22T06:25:24.415Z,15.40
2023-03-22T06:27:55.061Z,14.40
2023-03-22T06:30:23.959Z,13.40
2023-03-22T06:33:12.631Z,13.20
2023-03-22T06:35:45.612Z,14.40
2023-03-22T06:38:17.886Z,14.50
2023-03-22T06:40:46.669Z,13.60
2023-03-22T06:43:14.985Z,13.60
2023-03-22T06:45:47.678Z,13.40
2023-03-22T06:48:16.326Z,14.70
2023-03-22T06:51:14.047Z,13.60
2023-03-22T06:53:42.956Z,13.40
2023-03-22T06:56:11.803Z,12.90
2023-03-22T06:58:47.841Z,13.80
2023-03-22T07:01:15.934Z,14.20
2023-03-22T07:03:46.058Z,14.10
2023-03-22T07:06:16.817Z,14.00
2023-03-22T07:08:47.594Z,14.00
2023-03-22T07:11:20.428Z,13.40
2023-03-22T07:13:57.191Z,13.20
2023-03-22T07:16:28.625Z,12.50
2023-03-22T07:19:02.792Z,12.30
2023-03-22T07:21:32.933Z,12.70
2023-03-22T07:24:04.479Z,12.80
2023-03-22T07:26:32.990Z,13.30
2023-03-22T07:29:05.023Z,12.40
2023-03-22T07:31:36.801Z,12.10
2023-03-22T07:34:23.224Z,12.00
2023-03-22T07:37:08.649Z,12.50
2023-03-22T07:39:42.873Z,12.30
2023-03-22T07:42:13.720Z,12.60
2023-03-22T07:45:00.515Z,11.70
2023-03-22T07:47:40.699Z,13.00
2023-03-22T07:50:35.720Z,12.40
2023-03-22T07:53:05.236Z,12.10
2023-03-22T07:55:33.892Z,12.10
2023-03-22T07:58:03.983Z,11.00
2023-03-22T08:00:35.441Z,11.40
2023-03-22T08:03:25.394Z,11.20
2023-03-22T08:06:06.709Z,11.10
2023-03-22T08:08:35.720Z,12.20
2023-03-22T08:11:06.853Z,10.50
2023-03-22T08:13:35.905Z,11.10
2023-03-22T08:16:05.498Z,11.30
2023-03-22T08:18:37.383Z,10.60
2023-03-22T08:21:06.646Z,10.20
2023-03-22T08:23:42.111Z,9.80
2023-03-22T08:26:33.573Z,10.20
2023-03-22T08:29:09.719Z,10.80
2023-03-22T08:31:38.460Z,10.20
2023-03-22T08:34:06.917Z,10.20
2023-03-22T08:36:36.889Z,10.20
2023-03-22T08:39:05.437Z,8.90
2023-03-22T08:41:42.404Z,9.00
2023-03-22T08:44:11.012Z,8.60
2023-03-22T08:46:40.410Z,9.60
2023-03-22T08:49:10.585Z,8.60
2023-03-22T08:54:39.728Z,7.80
2023-03-22T08:57:44.776Z,7.20
2023-03-22T09:00:48.936Z,7.50
2023-03-22T09:03:28.930Z,7.20
2023-03-22T09:05:59.382Z,7.70
2023-03-22T09:08:31.762Z,6.80
2023-03-22T09:11:08.795Z,6.90
2023-03-22T09:13:37.382Z,6.50
2023-03-22T09:18:40.672Z,6.50
2023-03-22T09:21:16.276Z,6.80
2023-03-22T09:23:51.822Z,6.50
2023-03-22T09:26:26.832Z,6.50
2023-03-22T09:28:55.913Z,6.40
2023-03-22T09:31:24.257Z,5.70
2023-03-22T09:34:02.432Z,5.40
2023-03-22T09:36:32.475Z,8.00
2023-03-22T09:39:01.368Z,5.60
2023-03-22T09:41:39.696Z,5.40
2023-03-22T09:44:15.720Z,4.90
2023-03-22T09:46:46.695Z,5.20
2023-03-22T09:49:19.428Z,4.30
2023-03-22T09:51:51.574Z,4.20
2023-03-22T09:54:28.704Z,5.10
2023-03-22T09:57:05.365Z,4.90
2023-03-22T09:59:40.191Z,4.80
2023-03-22T10:02:35.691Z,4.40
2023-03-22T10:05:37.357Z,4.10
2023-03-22T10:08:30.458Z,4.40
2023-03-22T10:10:59.747Z,5.20
2023-03-22T10:13:40.964Z,5.40
2023-03-22T10:16:13.636Z,5.00
2023-03-22T10:21:17.730Z,5.00
2023-03-22T10:24:26.218Z,5.30
2023-03-22T10:26:54.472Z,5.30
2023-03-22T10:29:53.505Z,5.10
2023-03-22T10:32:56.466Z,4.90
2023-03-22T10:35:25.511Z,4.10
2023-03-22T10:37:55.097Z,5.20
2023-03-22T10:40:30.590Z,4.90
2023-03-22T10:43:05.990Z,4.60
2023-03-22T10:45:37.278Z,5.10
2023-03-22T10:48:19.255Z,4.80
2023-03-22T10:50:47.447Z,4.90
2023-03-22T10:53:37.525Z,4.50
2023-03-22T10:56:06.313Z,5.90
2023-03-22T10:58:34.507Z,4.70
2023-03-22T11:01:11.160Z,4.70
2023-03-22T11:03:50.313Z,4.90
2023-03-22T11:06:35.190Z,4.70
2023-03-22T11:09:25.570Z,4.20
2023-03-22T11:12:00.394Z,3.80
2023-03-22T11:14:43.329Z,4.00
2023-03-22T11:17:14.313Z,3.60
2023-03-22T11:19:54.769Z,3.50
2023-03-22T11:22:36.580Z,4.00
2023-03-22T11:25:16.747Z,3.70
2023-03-22T11:27:53.754Z,3.70
2023-03-22T11:30:24.970Z,3.70
2023-03-22T11:33:08.962Z,4.30
2023-03-22T11:35:38.513Z,4.00
2023-03-22T11:38:07.710Z,3.80
2023-03-22T11:40:38.161Z,5.40
2023-03-22T11:43:19.930Z,5.40
2023-03-22T11:45:59.695Z,4.30
2023-03-22T11:48:30.153Z,4.10
2023-03-22T11:51:17.889Z,4.40
2023-03-22T11:53:48.402Z,4.10
2023-03-22T11:56:18.286Z,3.60
2023-03-22T11:59:00.146Z,3.60
2023-03-22T12:01:51.722Z,3.70
2023-03-22T12:04:22.872Z,3.90
2023-03-22T12:06:53.818Z,4.20
2023-03-22T12:09:28.978Z,3.60
2023-03-22T12:12:02.893Z,3.50
2023-03-22T12:14:56.168Z,3.30
2023-03-22T12:17:29.141Z,3.50
2023-03-22T12:22:33.752Z,3.30
2023-03-22T12:25:03.710Z,3.70
2023-03-22T12:27:35.090Z,3.30
2023-03-22T12:30:10.047Z,3.50
2023-03-22T12:33:14.390Z,3.00
2023-03-22T12:35:44.272Z,3.20
2023-03-22T12:38:18.068Z,3.70
2023-03-22T12:40:46.428Z,3.10
2023-03-22T12:43:33.322Z,3.40
2023-03-22T12:46:06.813Z,3.20
2023-03-22T12:48:46.335Z,3.50
2023-03-22T12:51:15.031Z,2.80
2023-03-22T12:53:46.802Z,2.70
2023-03-22T12:56:16.940Z,2.80
2023-03-22T12:58:50.519Z,2.70
2023-03-22T13:01:40.319Z,2.80
2023-03-22T13:04:28.882Z,2.60
2023-03-22T13:06:59.375Z,2.70
2023-03-22T13:09:49.502Z,3.50
2023-03-22T13:12:24.682Z,2.40
2023-03-22T13:14:56.444Z,2.20
2023-03-22T13:17:24.881Z,2.00
2023-03-22T13:20:14.913Z,1.80
2023-03-22T13:22:45.961Z,2.10
2023-03-22T13:25:17.330Z,2.40
2023-03-22T13:27:46.426Z,2.30
2023-03-22T13:30:21.782Z,2.20
2023-03-22T13:32:57.605Z,2.50
2023-03-22T13:35:44.120Z,2.20
2023-03-22T13:38:34.223Z,2.80
2023-03-22T13:41:21.327Z,2.40
2023-03-22T13:43:50.715Z,2.90
2023-03-22T13:46:22.762Z,3.10
2023-03-22T13:48:54.858Z,2.60
2023-03-22T13:51:27.234Z,2.40
2023-03-22T13:54:18.782Z,3.10
2023-03-22T13:56:48.668Z,3.00
2023-03-22T13:59:24.535Z,2.90
2023-03-22T14:01:56.224Z,2.30
2023-03-22T14:04:43.368Z,2.80
2023-03-22T14:07:50.961Z,2.70
2023-03-22T14:10:25.908Z,2.90
2023-03-22T14:12:54.715Z,2.70
2023-03-22T14:15:31.515Z,2.80
2023-03-22T14:18:00.990Z,2.90
2023-03-22T14:20:32.056Z,2.60
